Time;durP1;ratioP1;P1;durP2;ratioP2;P2;SDS_P1;SDS_P2;PMS_P1;PMS_P2;Temp;Humidity;BMP_temperature;BMP_pressure;BME280_temperature;BME280_humidity;BME280_pressure;Samples;Min_cycle;Max_cycle;Signal;HPM_P1;HPM_P2
2022/05/17 00:02:22;;;;;;;1999.90;999.90;;;;;;;;;;5036160;28;20486;-72
2022/05/17 00:04:51;;;;;;;1999.90;999.90;;;;;;;;;;5037226;28;20409;-72
2022/05/17 00:07:19;;;;;;;1999.90;999.90;;;;;;;;;;5035522;28;20409;-73
2022/05/17 00:09:47;;;;;;;1999.90;999.90;;;;;;;;;;5036785;28;20424;-72
2022/05/17 00:12:14;;;;;;;1999.90;999.90;;;;;;;;;;5020141;28;20361;-71
2022/05/17 00:14:42;;;;;;;1999.90;999.90;;;;;;;;;;5033719;28;20231;-71
2022/05/17 00:17:09;;;;;;;1999.90;999.90;;;;;;;;;;5035013;28;20242;-72
2022/05/17 00:19:37;;;;;;;1999.90;999.90;;;;;;;;;;5035267;28;20741;-72
2022/05/17 00:22:07;;;;;;;1999.90;999.90;;;;;;;;;;5035678;28;20319;-71
2022/05/17 00:24:35;;;;;;;1999.90;999.90;;;;;;;;;;5036391;28;20235;-71
2022/05/17 00:27:03;;;;;;;1999.90;999.90;;;;;;;;;;5002127;28;20352;-71
2022/05/17 00:29:31;;;;;;;1999.90;999.90;;;;;;;;;;5018960;28;21186;-71
2022/05/17 00:31:59;;;;;;;1999.90;999.90;;;;;;;;;;5036332;28;20238;-71
2022/05/17 00:34:27;;;;;;;1999.90;999.90;;;;;;;;;;5036948;28;20237;-72
2022/05/17 00:36:55;;;;;;;1999.90;999.90;;;;;;;;;;5036090;28;20352;-72
2022/05/17 00:39:24;;;;;;;1999.90;999.90;;;;;;;;;;5020215;22;20223;-76
2022/05/17 00:41:51;;;;;;;1999.90;999.90;;;;;;;;;;5014813;28;20244;-77
2022/05/17 00:47:07;;;;;;;1999.90;999.90;;;;;;;;;;5023344;28;20229;-77
2022/05/17 00:49:37;;;;;;;1999.90;999.90;;;;;;;;;;5038821;28;20240;-77
2022/05/17 00:52:06;;;;;;;1999.90;999.90;;;;;;;;;;5020345;28;20334;-77
2022/05/17 00:54:36;;;;;;;1999.90;999.90;;;;;;;;;;5023207;28;20263;-76
2022/05/17 00:57:07;;;;;;;1999.90;999.90;;;;;;;;;;5023633;28;20237;-76
2022/05/17 00:59:36;;;;;;;1999.90;999.90;;;;;;;;;;5008033;28;20229;-76
2022/05/17 01:02:05;;;;;;;1999.90;999.90;;;;;;;;;;5022547;28;20748;-76
2022/05/17 01:04:33;;;;;;;1999.90;999.90;;;;;;;;;;5026157;28;20730;-77
2022/05/17 01:07:03;;;;;;;1999.90;999.90;;;;;;;;;;5021745;28;20308;-76
2022/05/17 01:09:30;;;;;;;1999.90;999.90;;;;;;;;;;5023340;28;20233;-77
2022/05/17 01:11:59;;;;;;;1999.90;999.90;;;;;;;;;;5020801;28;20263;-75
2022/05/17 01:17:13;;;;;;;1999.90;999.90;;;;;;;;;;5022716;28;20233;-76
2022/05/17 01:19:41;;;;;;;1999.90;999.90;;;;;;;;;;5025050;28;20922;-76
2022/05/17 01:22:10;;;;;;;1999.90;999.90;;;;;;;;;;5020868;28;20229;-76
2022/05/17 01:24:38;;;;;;;1999.90;999.90;;;;;;;;;;5025604;28;20228;-76
2022/05/17 01:27:09;;;;;;;1999.90;999.90;;;;;;;;;;5022654;28;20224;-76
2022/05/17 01:29:41;;;;;;;1999.90;999.90;;;;;;;;;;5006864;28;20260;-76
2022/05/17 01:32:14;;;;;;;1999.90;999.90;;;;;;;;;;5022229;28;20237;-75
2022/05/17 01:34:42;;;;;;;1999.90;999.90;;;;;;;;;;5025162;28;20275;-76
2022/05/17 01:37:12;;;;;;;1999.90;999.90;;;;;;;;;;5023940;28;20237;-76
2022/05/17 01:39:40;;;;;;;1999.90;999.90;;;;;;;;;;5024992;28;20296;-76
2022/05/17 01:42:08;;;;;;;1999.90;999.90;;;;;;;;;;5022795;28;20271;-76
2022/05/17 01:44:36;;;;;;;1999.90;999.90;;;;;;;;;;5008155;28;20252;-76
2022/05/17 01:47:03;;;;;;;1999.90;999.90;;;;;;;;;;5024641;28;20337;-75
2022/05/17 01:49:31;;;;;;;1999.90;999.90;;;;;;;;;;5007896;28;20232;-76
2022/05/17 01:51:59;;;;;;;1999.90;999.90;;;;;;;;;;5026154;28;20237;-76
2022/05/17 01:54:28;;;;;;;1999.90;999.90;;;;;;;;;;5028392;28;20245;-75
2022/05/17 01:56:55;;;;;;;1999.90;999.90;;;;;;;;;;5027486;28;20233;-75
2022/05/17 01:59:23;;;;;;;1999.90;999.90;;;;;;;;;;5029712;28;20233;-76
2022/05/17 02:01:50;;;;;;;1999.90;999.90;;;;;;;;;;5024642;28;20284;-76
2022/05/17 02:04:18;;;;;;;1999.90;999.90;;;;;;;;;;5017785;28;20261;-78
2022/05/17 02:06:46;;;;;;;1999.90;999.90;;;;;;;;;;5004045;28;20233;-76
2022/05/17 02:09:13;;;;;;;1999.90;999.90;;;;;;;;;;5023787;28;21328;-77
2022/05/17 02:11:43;;;;;;;1999.90;999.90;;;;;;;;;;5023162;28;20229;-76
2022/05/17 02:14:11;;;;;;;1999.90;999.90;;;;;;;;;;5025232;28;20287;-77
2022/05/17 02:16:39;;;;;;;1999.90;999.90;;;;;;;;;;5025175;28;20780;-76
2022/05/17 02:19:07;;;;;;;1999.90;999.90;;;;;;;;;;5025514;28;20256;-77
2022/05/17 02:21:35;;;;;;;1999.90;999.90;;;;;;;;;;5024121;28;20237;-76
2022/05/17 02:24:03;;;;;;;1999.90;999.90;;;;;;;;;;5023660;28;20702;-78
2022/05/17 02:26:31;;;;;;;1999.90;999.90;;;;;;;;;;5026724;28;20233;-77
2022/05/17 02:29:01;;;;;;;1999.90;999.90;;;;;;;;;;5025793;28;20681;-76
2022/05/17 02:31:29;;;;;;;1999.90;999.90;;;;;;;;;;5023108;28;20819;-76
2022/05/17 02:33:57;;;;;;;1999.90;999.90;;;;;;;;;;5024129;28;21349;-76
2022/05/17 02:36:25;;;;;;;1999.90;999.90;;;;;;;;;;5026119;28;20225;-76
2022/05/17 02:38:53;;;;;;;1999.90;999.90;;;;;;;;;;5028699;28;20320;-75
2022/05/17 02:41:23;;;;;;;1999.90;999.90;;;;;;;;;;5023290;28;21016;-76
2022/05/17 02:43:51;;;;;;;1999.90;999.90;;;;;;;;;;5010421;28;20225;-76
2022/05/17 02:46:20;;;;;;;1999.90;999.90;;;;;;;;;;5026320;28;20232;-77
2022/05/17 02:48:48;;;;;;;1999.90;999.90;;;;;;;;;;5010048;28;20229;-77
2022/05/17 02:51:16;;;;;;;1999.90;999.90;;;;;;;;;;5008911;28;20237;-78
2022/05/17 02:53:44;;;;;;;1999.90;999.90;;;;;;;;;;5027462;28;20256;-76
2022/05/17 02:56:12;;;;;;;1999.90;999.90;;;;;;;;;;5025938;28;20738;-76
2022/05/17 02:58:39;;;;;;;1999.90;999.90;;;;;;;;;;5025204;28;20241;-77
2022/05/17 03:01:07;;;;;;;1999.90;999.90;;;;;;;;;;5023363;28;20288;-76
2022/05/17 03:03:38;;;;;;;1999.90;999.90;;;;;;;;;;5039956;28;20581;-77
2022/05/17 03:06:06;;;;;;;1999.90;999.90;;;;;;;;;;5024908;28;20287;-76
2022/05/17 03:08:34;;;;;;;1999.90;999.90;;;;;;;;;;5024900;28;20748;-76
2022/05/17 03:11:01;;;;;;;1999.90;999.90;;;;;;;;;;5025152;28;20263;-76
2022/05/17 03:13:29;;;;;;;1999.90;999.90;;;;;;;;;;5025002;28;20233;-76
2022/05/17 03:15:57;;;;;;;1999.90;999.90;;;;;;;;;;5026576;28;20271;-77
2022/05/17 03:18:24;;;;;;;1999.90;999.90;;;;;;;;;;5026402;28;20229;-77
2022/05/17 03:20:53;;;;;;;1999.90;999.90;;;;;;;;;;5009355;28;20740;-77
2022/05/17 03:23:21;;;;;;;1999.90;999.90;;;;;;;;;;5025921;28;20230;-77
2022/05/17 03:25:49;;;;;;;1999.90;999.90;;;;;;;;;;5025632;28;20299;-76
2022/05/17 03:28:16;;;;;;;1999.90;999.90;;;;;;;;;;5024183;28;21086;-77
2022/05/17 03:30:44;;;;;;;1999.90;999.90;;;;;;;;;;5022081;28;20244;-77
2022/05/17 03:33:12;;;;;;;1999.90;999.90;;;;;;;;;;5024435;28;20256;-76
2022/05/17 03:35:40;;;;;;;1999.90;999.90;;;;;;;;;;5014007;28;20240;-76
2022/05/17 03:38:09;;;;;;;1999.90;999.90;;;;;;;;;;5026278;28;20316;-76
2022/05/17 03:40:37;;;;;;;1999.90;999.90;;;;;;;;;;5007182;28;20741;-76
2022/05/17 03:43:05;;;;;;;1999.90;999.90;;;;;;;;;;5023670;28;21016;-76
2022/05/17 03:45:33;;;;;;;1999.90;999.90;;;;;;;;;;5014119;28;20717;-76
2022/05/17 03:48:00;;;;;;;1999.90;999.90;;;;;;;;;;5025958;28;20225;-76
2022/05/17 03:50:28;;;;;;;1999.90;999.90;;;;;;;;;;5024347;28;21398;-76
2022/05/17 03:52:56;;;;;;;1999.90;999.90;;;;;;;;;;5026148;28;20950;-77
2022/05/17 03:55:26;;;;;;;1999.90;999.90;;;;;;;;;;5025391;28;20236;-75
2022/05/17 03:57:54;;;;;;;1999.90;999.90;;;;;;;;;;5024970;28;20232;-76
2022/05/17 04:00:22;;;;;;;1999.90;999.90;;;;;;;;;;5019690;28;20244;-75
2022/05/17 04:02:49;;;;;;;1999.90;999.90;;;;;;;;;;5016020;28;21006;-77
2022/05/17 04:05:17;;;;;;;1999.90;999.90;;;;;;;;;;5019876;28;20824;-76
2022/05/17 04:07:47;;;;;;;1999.90;999.90;;;;;;;;;;5001104;28;20221;-76
2022/05/17 04:10:15;;;;;;;1999.90;999.90;;;;;;;;;;5022509;28;20236;-77
2022/05/17 04:12:44;;;;;;;1999.90;999.90;;;;;;;;;;5020261;28;20276;-77
2022/05/17 04:15:13;;;;;;;1999.90;999.90;;;;;;;;;;5020339;28;20234;-76
2022/05/17 04:17:41;;;;;;;1999.90;999.90;;;;;;;;;;5007407;28;20229;-76
2022/05/17 04:20:15;;;;;;;1999.90;999.90;;;;;;;;;;5023161;28;20233;-76
2022/05/17 04:22:43;;;;;;;1999.90;999.90;;;;;;;;;;5021981;28;20280;-76
2022/05/17 04:25:12;;;;;;;1999.90;999.90;;;;;;;;;;5023905;28;20229;-76
2022/05/17 04:27:39;;;;;;;1999.90;999.90;;;;;;;;;;5004295;28;20233;-76
2022/05/17 04:30:09;;;;;;;1999.90;999.90;;;;;;;;;;5022657;28;20256;-76
2022/05/17 04:32:37;;;;;;;1999.90;999.90;;;;;;;;;;5021108;28;20238;-76
2022/05/17 04:35:06;;;;;;;1999.90;999.90;;;;;;;;;;5021022;28;20237;-76
2022/05/17 04:37:33;;;;;;;1999.90;999.90;;;;;;;;;;5038004;28;20241;-76
2022/05/17 04:40:01;;;;;;;1999.90;999.90;;;;;;;;;;5023103;28;20245;-76
2022/05/17 04:42:29;;;;;;;1999.90;999.90;;;;;;;;;;5024438;28;20330;-76
2022/05/17 04:44:56;;;;;;;1999.90;999.90;;;;;;;;;;5023876;28;20229;-76
2022/05/17 04:47:26;;;;;;;1999.90;999.90;;;;;;;;;;5021834;28;20381;-76
2022/05/17 04:49:53;;;;;;;1999.90;999.90;;;;;;;;;;5025795;28;20233;-75
2022/05/17 04:52:21;;;;;;;1999.90;999.90;;;;;;;;;;5024786;28;20233;-76
2022/05/17 04:54:49;;;;;;;1999.90;999.90;;;;;;;;;;5022136;28;20745;-77
2022/05/17 04:57:17;;;;;;;1999.90;999.90;;;;;;;;;;5022943;28;20725;-79
2022/05/17 04:59:44;;;;;;;1999.90;999.90;;;;;;;;;;5025394;28;20225;-78
2022/05/17 05:02:12;;;;;;;1999.90;999.90;;;;;;;;;;5024493;28;20232;-76
2022/05/17 05:04:41;;;;;;;1999.90;999.90;;;;;;;;;;5023222;28;20321;-78
2022/05/17 05:07:09;;;;;;;1999.90;999.90;;;;;;;;;;5022232;28;20287;-78
2022/05/17 05:09:36;;;;;;;1999.90;999.90;;;;;;;;;;5025055;28;20401;-77
2022/05/17 05:12:05;;;;;;;1999.90;999.90;;;;;;;;;;5022729;28;20237;-77
2022/05/17 05:14:33;;;;;;;1999.90;999.90;;;;;;;;;;5031414;28;20287;-77
2022/05/17 05:17:01;;;;;;;1999.90;999.90;;;;;;;;;;5020721;28;20243;-77
2022/05/17 05:19:28;;;;;;;1999.90;999.90;;;;;;;;;;5021881;28;21128;-77
2022/05/17 05:21:58;;;;;;;1999.90;999.90;;;;;;;;;;5025694;28;20780;-77
2022/05/17 05:24:26;;;;;;;1999.90;999.90;;;;;;;;;;5022154;28;20233;-78
2022/05/17 05:26:54;;;;;;;1999.90;999.90;;;;;;;;;;5023147;28;21108;-77
2022/05/17 05:29:22;;;;;;;1999.90;999.90;;;;;;;;;;5018475;28;20260;-77
2022/05/17 05:31:50;;;;;;;1999.90;999.90;;;;;;;;;;5014681;28;20240;-77
2022/05/17 05:34:18;;;;;;;1999.90;999.90;;;;;;;;;;5013660;28;20260;-77
2022/05/17 05:36:46;;;;;;;1999.90;999.90;;;;;;;;;;5019756;28;20240;-77
2022/05/17 05:39:16;;;;;;;1999.90;999.90;;;;;;;;;;5021225;28;20233;-74
2022/05/17 05:41:44;;;;;;;1999.90;999.90;;;;;;;;;;5019630;28;20240;-74
2022/05/17 05:44:11;;;;;;;1999.90;999.90;;;;;;;;;;5006489;28;20268;-75
2022/05/17 05:46:39;;;;;;;1999.90;999.90;;;;;;;;;;5021728;28;20726;-74
2022/05/17 05:49:07;;;;;;;1999.90;999.90;;;;;;;;;;5005806;28;20225;-75
2022/05/17 05:51:35;;;;;;;1999.90;999.90;;;;;;;;;;5023115;28;20217;-75
2022/05/17 05:54:04;;;;;;;1999.90;999.90;;;;;;;;;;5023127;28;20710;-75
2022/05/17 05:56:33;;;;;;;1999.90;999.90;;;;;;;;;;5021186;28;20237;-74
2022/05/17 05:59:01;;;;;;;1999.90;999.90;;;;;;;;;;5021005;28;20264;-75
2022/05/17 06:01:29;;;;;;;1999.90;999.90;;;;;;;;;;5023305;28;20233;-75
2022/05/17 06:03:58;;;;;;;1999.90;999.90;;;;;;;;;;5022265;28;20232;-75
2022/05/17 06:06:26;;;;;;;1999.90;999.90;;;;;;;;;;5004536;28;20312;-75
2022/05/17 06:08:55;;;;;;;1999.90;999.90;;;;;;;;;;5022804;28;20225;-75
2022/05/17 06:11:22;;;;;;;1999.90;999.90;;;;;;;;;;5011545;28;20610;-75
2022/05/17 06:13:51;;;;;;;1999.90;999.90;;;;;;;;;;5020493;28;20690;-76
2022/05/17 06:16:20;;;;;;;1999.90;999.90;;;;;;;;;;5021290;28;21420;-74
2022/05/17 06:18:48;;;;;;;1999.90;999.90;;;;;;;;;;5006161;28;20229;-76
2022/05/17 06:21:15;;;;;;;1999.90;999.90;;;;;;;;;;5021687;28;20237;-75
2022/05/17 06:23:43;;;;;;;1999.90;999.90;;;;;;;;;;5038388;28;20229;-75
2022/05/17 06:26:11;;;;;;;1999.90;999.90;;;;;;;;;;5021094;28;20236;-74
2022/05/17 06:28:38;;;;;;;1999.90;999.90;;;;;;;;;;5003261;28;20233;-75
2022/05/17 06:31:07;;;;;;;1999.90;999.90;;;;;;;;;;5018787;28;20236;-75
2022/05/17 06:33:35;;;;;;;1999.90;999.90;;;;;;;;;;5005247;28;20225;-75
2022/05/17 06:36:03;;;;;;;1999.90;999.90;;;;;;;;;;5020240;28;20800;-75
2022/05/17 06:38:31;;;;;;;1999.90;999.90;;;;;;;;;;5026104;28;20776;-75
2022/05/17 06:40:59;;;;;;;1999.90;999.90;;;;;;;;;;5025220;28;20232;-75
2022/05/17 06:43:27;;;;;;;1999.90;999.90;;;;;;;;;;5024723;28;20292;-75
2022/05/17 06:45:55;;;;;;;1999.90;999.90;;;;;;;;;;5024171;28;20244;-75
2022/05/17 06:48:24;;;;;;;1999.90;999.90;;;;;;;;;;5030368;28;20804;-75
2022/05/17 06:50:52;;;;;;;1999.90;999.90;;;;;;;;;;5012625;28;20237;-75
2022/05/17 06:53:20;;;;;;;1999.90;999.90;;;;;;;;;;5025644;28;20244;-75
2022/05/17 06:55:47;;;;;;;1999.90;999.90;;;;;;;;;;5024297;28;20229;-75
2022/05/17 06:58:15;;;;;;;1999.90;999.90;;;;;;;;;;5029587;28;20333;-76
2022/05/17 07:00:43;;;;;;;1999.90;999.90;;;;;;;;;;5024839;28;20794;-74
2022/05/17 07:03:10;;;;;;;1999.90;999.90;;;;;;;;;;5014676;28;20225;-74
2022/05/17 07:05:40;;;;;;;1999.90;999.90;;;;;;;;;;5003593;28;20970;-75
2022/05/17 07:08:08;;;;;;;1999.90;999.90;;;;;;;;;;5026214;28;20351;-75
2022/05/17 07:13:21;;;;;;;1999.90;999.90;;;;;;;;;;5030743;28;20229;-75
2022/05/17 07:15:51;;;;;;;1999.90;999.90;;;;;;;;;;5030469;28;20229;-75
2022/05/17 07:18:20;;;;;;;1999.90;999.90;;;;;;;;;;5028181;28;20229;-76
2022/05/17 07:20:50;;;;;;;1999.90;999.90;;;;;;;;;;5032482;28;20618;-75
2022/05/17 07:23:21;;;;;;;1999.90;999.90;;;;;;;;;;5028162;28;20231;-75
2022/05/17 07:25:49;;;;;;;1999.90;999.90;;;;;;;;;;5028888;28;20240;-75
2022/05/17 07:28:18;;;;;;;1999.90;999.90;;;;;;;;;;5026089;28;20233;-75
2022/05/17 07:30:46;;;;;;;1999.90;999.90;;;;;;;;;;5027561;28;20237;-75
2022/05/17 07:33:14;;;;;;;1999.90;999.90;;;;;;;;;;5025366;28;20221;-75
2022/05/17 07:35:42;;;;;;;1999.90;999.90;;;;;;;;;;5025185;28;20303;-75
2022/05/17 07:38:11;;;;;;;1999.90;999.90;;;;;;;;;;5026915;28;20233;-74
2022/05/17 07:40:41;;;;;;;1999.90;999.90;;;;;;;;;;5026860;28;20237;-75
2022/05/17 07:43:09;;;;;;;1999.90;999.90;;;;;;;;;;4999696;28;20229;-76
2022/05/17 07:45:37;;;;;;;1999.90;999.90;;;;;;;;;;5026681;28;20241;-75
2022/05/17 07:48:06;;;;;;;1999.90;999.90;;;;;;;;;;5025289;28;20229;-75
2022/05/17 07:50:33;;;;;;;1999.90;999.90;;;;;;;;;;5022577;28;20260;-75
2022/05/17 07:53:07;;;;;;;1999.90;999.90;;;;;;;;;;5023290;28;20741;-75
2022/05/17 07:55:37;;;;;;;1999.90;999.90;;;;;;;;;;5026048;28;20231;-75
2022/05/17 07:58:06;;;;;;;1999.90;999.90;;;;;;;;;;5023886;28;20241;-75
2022/05/17 08:00:33;;;;;;;1999.90;999.90;;;;;;;;;;5024466;28;20320;-75
2022/05/17 08:03:01;;;;;;;1999.90;999.90;;;;;;;;;;5024787;28;20295;-75
2022/05/17 08:05:29;;;;;;;1999.90;999.90;;;;;;;;;;5024640;28;20229;-75
2022/05/17 08:07:58;;;;;;;1999.90;999.90;;;;;;;;;;5024422;28;20237;-75
2022/05/17 08:10:26;;;;;;;1999.90;999.90;;;;;;;;;;5023044;28;20320;-75
2022/05/17 08:12:56;;;;;;;1999.90;999.90;;;;;;;;;;5024311;28;21042;-75
2022/05/17 08:15:24;;;;;;;1999.90;999.90;;;;;;;;;;5025219;28;20241;-75
2022/05/17 08:17:59;;;;;;;1999.90;999.90;;;;;;;;;;5026059;28;20241;-75
2022/05/17 08:20:26;;;;;;;1999.90;999.90;;;;;;;;;;5007636;28;21169;-76
2022/05/17 08:22:54;;;;;;;1999.90;999.90;;;;;;;;;;5025828;28;20225;-75
2022/05/17 08:28:09;;;;;;;1999.90;999.90;;;;;;;;;;5020509;28;20225;-75
2022/05/17 08:30:38;;;;;;;1999.90;999.90;;;;;;;;;;5022356;28;20724;-75
2022/05/17 08:33:16;;;;;;;1999.90;999.90;;;;;;;;;;5025245;28;20233;-75
2022/05/17 08:35:46;;;;;;;1999.90;999.90;;;;;;;;;;5025390;28;20228;-75
2022/05/17 08:38:14;;;;;;;1999.90;999.90;;;;;;;;;;5014059;28;20242;-75
2022/05/17 08:40:55;;;;;;;1999.90;999.90;;;;;;;;;;5015401;28;20236;-75
2022/05/17 08:43:26;;;;;;;1999.90;999.90;;;;;;;;;;5018080;28;20229;-75
2022/05/17 08:46:00;;;;;;;1999.90;999.90;;;;;;;;;;5006822;28;20718;-75
2022/05/17 08:48:31;;;;;;;1999.90;999.90;;;;;;;;;;5019869;28;20238;-75
2022/05/17 08:50:59;;;;;;;1999.90;999.90;;;;;;;;;;5027107;28;20316;-76
2022/05/17 08:53:27;;;;;;;1999.90;999.90;;;;;;;;;;5021235;28;20233;-75
2022/05/17 08:55:55;;;;;;;1999.90;999.90;;;;;;;;;;5037890;28;20288;-75
2022/05/17 08:58:25;;;;;;;1999.90;999.90;;;;;;;;;;5010533;28;20237;-75
2022/05/17 09:00:55;;;;;;;1999.90;999.90;;;;;;;;;;5022243;28;20714;-76
2022/05/17 09:03:32;;;;;;;1999.90;999.90;;;;;;;;;;5023115;28;20237;-75
2022/05/17 09:06:02;;;;;;;1999.90;999.90;;;;;;;;;;5023415;28;20221;-77
2022/05/17 09:08:34;;;;;;;1999.90;999.90;;;;;;;;;;5022425;28;20225;-76
2022/05/17 09:11:07;;;;;;;1999.90;999.90;;;;;;;;;;5021446;28;20229;-75
2022/05/17 09:13:44;;;;;;;1999.90;999.90;;;;;;;;;;5023498;28;21061;-76
2022/05/17 09:16:33;;;;;;;1999.90;999.90;;;;;;;;;;5022101;28;20320;-75
2022/05/17 09:19:01;;;;;;;1999.90;999.90;;;;;;;;;;5021812;28;20260;-75
2022/05/17 09:21:29;;;;;;;1999.90;999.90;;;;;;;;;;5016359;28;20240;-75
2022/05/17 09:23:58;;;;;;;1999.90;999.90;;;;;;;;;;5020834;28;21251;-76
2022/05/17 09:26:27;;;;;;;1999.90;999.90;;;;;;;;;;5038216;28;20233;-76
2022/05/17 09:28:59;;;;;;;1999.90;999.90;;;;;;;;;;5022621;28;20741;-75
2022/05/17 09:31:29;;;;;;;1999.90;999.90;;;;;;;;;;5038187;28;20267;-76
2022/05/17 09:33:57;;;;;;;1999.90;999.90;;;;;;;;;;5020670;28;20225;-76
2022/05/17 09:36:26;;;;;;;1999.90;999.90;;;;;;;;;;5022867;28;20260;-76
2022/05/17 09:38:54;;;;;;;1999.90;999.90;;;;;;;;;;5020075;28;20316;-76
2022/05/17 09:41:24;;;;;;;1999.90;999.90;;;;;;;;;;5021614;28;20316;-75
2022/05/17 09:43:52;;;;;;;1999.90;999.90;;;;;;;;;;5008389;28;21435;-76
2022/05/17 09:46:30;;;;;;;1999.90;999.90;;;;;;;;;;5020701;28;20240;-75
2022/05/17 09:54:39;;;;;;;1999.90;999.90;;;;;;;;;;5021454;28;20232;-75
2022/05/17 09:57:11;;;;;;;1999.90;999.90;;;;;;;;;;5020505;28;20261;-76
2022/05/17 09:59:39;;;;;;;1999.90;999.90;;;;;;;;;;5022660;28;20233;-75
2022/05/17 10:02:25;;;;;;;1999.90;999.90;;;;;;;;;;5024126;28;20722;-75
2022/05/17 10:04:52;;;;;;;1999.90;999.90;;;;;;;;;;5022365;28;20320;-76
2022/05/17 10:07:28;;;;;;;1999.90;999.90;;;;;;;;;;5004180;28;20229;-76
2022/05/17 10:09:56;;;;;;;1999.90;999.90;;;;;;;;;;5005288;28;20232;-75
2022/05/17 10:12:27;;;;;;;1999.90;999.90;;;;;;;;;;5024296;28;20729;-76
2022/05/17 10:14:57;;;;;;;1999.90;999.90;;;;;;;;;;5027945;28;20279;-76
2022/05/17 10:17:30;;;;;;;1999.90;999.90;;;;;;;;;;5009804;28;20249;-76
2022/05/17 10:20:00;;;;;;;1999.90;999.90;;;;;;;;;;5009319;28;20240;-75
2022/05/17 10:22:31;;;;;;;1999.90;999.90;;;;;;;;;;5025676;28;20955;-76
2022/05/17 10:25:02;;;;;;;1999.90;999.90;;;;;;;;;;5017188;28;20236;-76
2022/05/17 10:27:32;;;;;;;1999.90;999.90;;;;;;;;;;5025754;28;20253;-75
2022/05/17 10:30:02;;;;;;;1999.90;999.90;;;;;;;;;;5025286;28;20225;-76
2022/05/17 10:32:34;;;;;;;1999.90;999.90;;;;;;;;;;5027341;28;20240;-76
2022/05/17 10:35:11;;;;;;;1999.90;999.90;;;;;;;;;;5026654;28;20731;-76
2022/05/17 10:37:44;;;;;;;1999.90;999.90;;;;;;;;;;5026582;28;20225;-76
2022/05/17 10:40:13;;;;;;;1999.90;999.90;;;;;;;;;;5025421;28;20237;-76
2022/05/17 10:42:44;;;;;;;1999.90;999.90;;;;;;;;;;5027514;28;20233;-75
2022/05/17 10:45:18;;;;;;;1999.90;999.90;;;;;;;;;;5025724;28;20228;-76
2022/05/17 10:47:50;;;;;;;1999.90;999.90;;;;;;;;;;5026491;28;20283;-76
2022/05/17 10:50:23;;;;;;;1999.90;999.90;;;;;;;;;;5024416;28;20244;-76
2022/05/17 10:52:58;;;;;;;1999.90;999.90;;;;;;;;;;5039437;28;20753;-76
2022/05/17 10:55:28;;;;;;;1999.90;999.90;;;;;;;;;;5026559;28;20236;-77
2022/05/17 10:57:58;;;;;;;1999.90;999.90;;;;;;;;;;5024852;28;20237;-75
2022/05/17 11:00:31;;;;;;;1999.90;999.90;;;;;;;;;;5026815;28;20237;-76
2022/05/17 11:03:06;;;;;;;1999.90;999.90;;;;;;;;;;5026541;28;20263;-76
2022/05/17 11:05:41;;;;;;;1999.90;999.90;;;;;;;;;;5025790;28;20244;-76
2022/05/17 11:08:14;;;;;;;1999.90;999.90;;;;;;;;;;5025329;28;20243;-76
2022/05/17 11:10:48;;;;;;;1999.90;999.90;;;;;;;;;;5024081;28;20233;-76
2022/05/17 11:13:24;;;;;;;1999.90;999.90;;;;;;;;;;5021726;28;20323;-76
2022/05/17 11:15:54;;;;;;;1999.90;999.90;;;;;;;;;;5023013;28;20676;-76
2022/05/17 11:18:27;;;;;;;1999.90;999.90;;;;;;;;;;5023174;28;20241;-76
2022/05/17 11:20:57;;;;;;;1999.90;999.90;;;;;;;;;;5021290;28;20244;-77
2022/05/17 11:23:39;;;;;;;1999.90;999.90;;;;;;;;;;5023849;28;20234;-76
2022/05/17 11:26:28;;;;;;;1999.90;999.90;;;;;;;;;;5024058;28;20248;-76
2022/05/17 11:29:01;;;;;;;1999.90;999.90;;;;;;;;;;5025319;28;20664;-76
2022/05/17 11:31:37;;;;;;;1999.90;999.90;;;;;;;;;;5024619;28;20328;-77
2022/05/17 11:34:32;;;;;;;1999.90;999.90;;;;;;;;;;5021558;28;20233;-77
2022/05/17 11:37:03;;;;;;;1999.90;999.90;;;;;;;;;;4964751;28;20781;-76
2022/05/17 11:39:46;;;;;;;1999.90;999.90;;;;;;;;;;5022683;28;20240;-76
2022/05/17 11:42:26;;;;;;;1999.90;999.90;;;;;;;;;;5039048;28;20272;-76
2022/05/17 11:44:54;;;;;;;1999.90;999.90;;;;;;;;;;5026147;28;20722;-78
2022/05/17 11:47:29;;;;;;;1999.90;999.90;;;;;;;;;;5025896;28;20837;-77
2022/05/17 11:50:16;;;;;;;1999.90;999.90;;;;;;;;;;5025314;28;20232;-77
2022/05/17 11:52:46;;;;;;;1999.90;999.90;;;;;;;;;;5023384;28;20225;-76
2022/05/17 11:55:17;;;;;;;1999.90;999.90;;;;;;;;;;5022003;28;20229;-78
2022/05/17 11:58:08;;;;;;;1999.90;999.90;;;;;;;;;;5023202;28;20709;-78
2022/05/17 12:00:42;;;;;;;1999.90;999.90;;;;;;;;;;5006105;28;20252;-78
2022/05/17 12:03:21;;;;;;;1999.90;999.90;;;;;;;;;;5006935;28;20284;-75
2022/05/17 12:05:56;;;;;;;1999.90;999.90;;;;;;;;;;5021797;28;20252;-76
2022/05/17 12:08:32;;;;;;;1999.90;999.90;;;;;;;;;;5023150;28;20717;-75
2022/05/17 12:11:05;;;;;;;1999.90;999.90;;;;;;;;;;5023456;28;20232;-75
2022/05/17 12:13:41;;;;;;;1999.90;999.90;;;;;;;;;;5007366;28;20667;-76
2022/05/17 12:16:13;;;;;;;1999.90;999.90;;;;;;;;;;5023184;28;20959;-75
2022/05/17 12:18:43;;;;;;;1999.90;999.90;;;;;;;;;;5021743;28;20225;-75
2022/05/17 12:21:29;;;;;;;1999.90;999.90;;;;;;;;;;5021886;28;21069;-74
2022/05/17 12:24:00;;;;;;;1999.90;999.90;;;;;;;;;;5023821;28;20233;-75
2022/05/17 12:26:35;;;;;;;1999.90;999.90;;;;;;;;;;5024264;28;21025;-76
2022/05/17 12:30:53;;;;;;;1999.90;999.90;;;;;;;;;;5015688;28;20636;-76
2022/05/17 12:31:56;;;;;;;1999.90;999.90;;;;;;;;;;5014202;28;20229;-76
2022/05/17 12:34:24;;;;;;;1999.90;999.90;;;;;;;;;;5013429;28;20237;-76
2022/05/17 12:36:52;;;;;;;1999.90;999.90;;;;;;;;;;5014640;28;20233;-75
2022/05/17 12:44:54;;;;;;;1999.90;999.90;;;;;;;;;;5012952;28;20408;-77
2022/05/17 12:47:23;;;;;;;1999.90;999.90;;;;;;;;;;4998118;28;20413;-76
2022/05/17 12:49:52;;;;;;;1999.90;999.90;;;;;;;;;;5017786;28;20422;-75
2022/05/17 12:52:29;;;;;;;1999.90;999.90;;;;;;;;;;5023059;28;20420;-76
2022/05/17 12:55:01;;;;;;;1999.90;999.90;;;;;;;;;;5020577;28;20401;-77
2022/05/17 12:57:32;;;;;;;1999.90;999.90;;;;;;;;;;5034173;28;20414;-76
2022/05/17 13:00:07;;;;;;;1999.90;999.90;;;;;;;;;;5020836;28;21254;-76
2022/05/17 13:02:41;;;;;;;1999.90;999.90;;;;;;;;;;5021888;28;20386;-77
2022/05/17 13:05:22;;;;;;;1999.90;999.90;;;;;;;;;;5019159;28;20509;-76
2022/05/17 13:07:58;;;;;;;1999.90;999.90;;;;;;;;;;5021587;28;22197;-75
2022/05/17 13:10:28;;;;;;;1999.90;999.90;;;;;;;;;;5017578;28;20475;-75
2022/05/17 13:12:56;;;;;;;1999.90;999.90;;;;;;;;;;5018068;28;20393;-76
2022/05/17 13:15:24;;;;;;;1999.90;999.90;;;;;;;;;;5019760;28;20405;-76
2022/05/17 13:17:54;;;;;;;1999.90;999.90;;;;;;;;;;5014116;28;20414;-76
2022/05/17 13:20:23;;;;;;;1999.90;999.90;;;;;;;;;;5020067;28;20502;-76
2022/05/17 13:22:54;;;;;;;1999.90;999.90;;;;;;;;;;5037214;28;20406;-76
2022/05/17 13:25:24;;;;;;;1999.90;999.90;;;;;;;;;;5019140;28;20410;-74
2022/05/17 13:27:55;;;;;;;1999.90;999.90;;;;;;;;;;5020273;28;20403;-74
2022/05/17 13:30:25;;;;;;;1999.90;999.90;;;;;;;;;;5018944;28;20896;-74
2022/05/17 13:32:54;;;;;;;1999.90;999.90;;;;;;;;;;5020996;28;20394;-75
2022/05/17 13:35:24;;;;;;;1999.90;999.90;;;;;;;;;;5016313;28;20395;-75
2022/05/17 13:37:57;;;;;;;1999.90;999.90;;;;;;;;;;4994835;28;20484;-75
2022/05/17 13:40:36;;;;;;;1999.90;999.90;;;;;;;;;;5014481;28;20485;-76
2022/05/17 13:43:19;;;;;;;1999.90;999.90;;;;;;;;;;5016387;28;20406;-76
2022/05/17 13:45:57;;;;;;;1999.90;999.90;;;;;;;;;;5020911;28;20421;-77
2022/05/17 13:48:25;;;;;;;1999.90;999.90;;;;;;;;;;5020290;28;21707;-76
2022/05/17 13:50:55;;;;;;;1999.90;999.90;;;;;;;;;;5019722;28;20241;-77
2022/05/17 13:53:25;;;;;;;1999.90;999.90;;;;;;;;;;5025352;28;20236;-76
2022/05/17 13:55:53;;;;;;;1999.90;999.90;;;;;;;;;;5016569;28;20239;-77
2022/05/17 13:58:23;;;;;;;1999.90;999.90;;;;;;;;;;5020998;28;20237;-76
2022/05/17 14:00:59;;;;;;;1999.90;999.90;;;;;;;;;;5023802;28;20243;-77
2022/05/17 14:03:31;;;;;;;1999.90;999.90;;;;;;;;;;5024892;28;20224;-77
2022/05/17 14:06:01;;;;;;;1999.90;999.90;;;;;;;;;;5018604;28;20323;-77
2022/05/17 14:14:06;;;;;;;1999.90;999.90;;;;;;;;;;5020803;28;20760;-77
2022/05/17 14:16:34;;;;;;;1999.90;999.90;;;;;;;;;;5019371;28;20280;-77
2022/05/17 14:19:04;;;;;;;1999.90;999.90;;;;;;;;;;5019808;28;20228;-76
2022/05/17 14:21:31;;;;;;;1999.90;999.90;;;;;;;;;;5021556;28;20784;-76
2022/05/17 14:23:59;;;;;;;1999.90;999.90;;;;;;;;;;5027685;28;20237;-76
2022/05/17 14:26:27;;;;;;;1999.90;999.90;;;;;;;;;;5018619;28;20233;-77